Time;durP1;ratioP1;P1;durP2;ratioP2;P2;SDS_P1;SDS_P2;PMS_P1;PMS_P2;Temp;Humidity;BMP_temperature;BMP_pressure;BME280_temperature;BME280_humidity;BME280_pressure;Samples;Min_cycle;Max_cycle;Signal;HPM_P1;HPM_P2
2022/12/09 00:01:43;;;;;;;50.90;16.60;;;;;;;;;;5054323;28;20617;-78
2022/12/09 00:04:47;;;;;;;73.13;16.33;;;;;;;;;;5053995;28;20594;-78
2022/12/09 00:07:52;;;;;;;42.10;15.53;;;;;;;;;;5054286;28;20551;-78
2022/12/09 00:10:56;;;;;;;55.53;16.27;;;;;;;;;;5043966;28;20632;-78
2022/12/09 00:14:00;;;;;;;49.60;15.73;;;;;;;;;;5054496;28;21345;-78
2022/12/09 00:17:04;;;;;;;66.17;15.77;;;;;;;;;;5065785;28;20553;-78
2022/12/09 00:20:09;;;;;;;78.93;15.13;;;;;;;;;;5055217;28;20638;-77
2022/12/09 00:23:13;;;;;;;41.37;15.50;;;;;;;;;;5028500;28;20578;-78
2022/12/09 00:26:19;;;;;;;38.73;14.97;;;;;;;;;;5022446;28;20621;-78
2022/12/09 00:29:23;;;;;;;46.73;16.03;;;;;;;;;;5018502;28;20592;-78
2022/12/09 00:32:27;;;;;;;66.70;16.57;;;;;;;;;;5003234;28;20638;-78
2022/12/09 00:35:32;;;;;;;61.63;15.97;;;;;;;;;;5033882;28;20582;-78
2022/12/09 00:38:37;;;;;;;33.93;15.87;;;;;;;;;;5023642;28;20560;-78
2022/12/09 00:41:41;;;;;;;58.73;17.47;;;;;;;;;;5028857;28;20650;-77
2022/12/09 00:44:45;;;;;;;38.03;15.77;;;;;;;;;;5045504;28;20658;-78
2022/12/09 00:47:49;;;;;;;43.73;16.13;;;;;;;;;;5022402;28;20617;-78
2022/12/09 00:50:54;;;;;;;52.50;15.50;;;;;;;;;;5033927;28;20629;-78
2022/12/09 00:53:58;;;;;;;56.47;15.70;;;;;;;;;;5045297;28;20555;-78
2022/12/09 00:57:03;;;;;;;50.53;16.57;;;;;;;;;;5029797;28;20583;-78
2022/12/09 01:00:08;;;;;;;46.90;15.90;;;;;;;;;;5014012;28;21101;-77
2022/12/09 01:03:14;;;;;;;48.03;15.90;;;;;;;;;;5025748;28;20556;-78
2022/12/09 01:06:23;;;;;;;39.47;15.90;;;;;;;;;;5035149;28;20596;-78
2022/12/09 01:09:27;;;;;;;48.80;16.60;;;;;;;;;;5024284;28;20880;-78
2022/12/09 01:12:32;;;;;;;48.27;16.87;;;;;;;;;;5000778;28;20639;-78
2022/12/09 01:15:37;;;;;;;77.03;16.97;;;;;;;;;;5022854;28;20639;-78
2022/12/09 01:18:42;;;;;;;42.70;16.27;;;;;;;;;;5012243;28;20611;-78
2022/12/09 01:21:47;;;;;;;40.27;17.53;;;;;;;;;;5022524;28;20623;-78
2022/12/09 01:24:51;;;;;;;34.37;16.30;;;;;;;;;;5019037;28;20654;-78
2022/12/09 01:27:55;;;;;;;39.00;16.50;;;;;;;;;;5043903;28;20530;-77
2022/12/09 01:31:16;;;;;;;26.53;16.77;;;;;;;;;;5055989;28;20625;-77
2022/12/09 01:34:21;;;;;;;40.20;17.93;;;;;;;;;;5043979;28;20542;-77
2022/12/09 01:37:25;;;;;;;38.20;17.57;;;;;;;;;;5041326;28;20560;-78
2022/12/09 01:40:29;;;;;;;32.60;16.93;;;;;;;;;;5018172;28;20559;-78
2022/12/09 01:43:33;;;;;;;36.30;18.00;;;;;;;;;;5029683;28;20891;-78
2022/12/09 01:46:37;;;;;;;31.43;17.60;;;;;;;;;;5018770;28;20540;-78
2022/12/09 01:49:42;;;;;;;32.27;18.23;;;;;;;;;;5042027;28;20547;-78
2022/12/09 01:52:48;;;;;;;37.53;17.50;;;;;;;;;;5041744;28;20630;-78
2022/12/09 01:55:56;;;;;;;35.03;17.47;;;;;;;;;;5016270;28;20548;-78
2022/12/09 01:59:07;;;;;;;41.63;19.53;;;;;;;;;;5026203;28;20547;-78
2022/12/09 02:02:16;;;;;;;29.03;16.90;;;;;;;;;;5015140;28;20638;-78
2022/12/09 02:05:23;;;;;;;34.57;18.10;;;;;;;;;;5016302;28;20955;-79
2022/12/09 02:08:32;;;;;;;31.87;19.17;;;;;;;;;;5028465;28;20551;-79
2022/12/09 02:12:00;;;;;;;39.70;18.77;;;;;;;;;;5015763;28;21209;-79
2022/12/09 02:15:11;;;;;;;35.60;18.80;;;;;;;;;;5015289;28;20615;-78
2022/12/09 02:18:35;;;;;;;33.57;19.00;;;;;;;;;;5037549;28;20900;-77
2022/12/09 02:21:52;;;;;;;35.03;18.13;;;;;;;;;;5026663;28;20626;-78
2022/12/09 02:25:02;;;;;;;33.40;19.67;;;;;;;;;;5026471;28;20947;-77
2022/12/09 02:28:35;;;;;;;34.63;18.23;;;;;;;;;;5037144;28;20563;-78
2022/12/09 02:32:14;;;;;;;32.60;18.20;;;;;;;;;;5026490;28;20624;-77
2022/12/09 02:35:34;;;;;;;39.33;19.00;;;;;;;;;;5014812;28;20599;-78
2022/12/09 02:38:42;;;;;;;29.73;18.67;;;;;;;;;;5037647;28;20559;-78
2022/12/09 02:41:48;;;;;;;30.27;17.53;;;;;;;;;;5025617;28;20824;-78
2022/12/09 02:44:55;;;;;;;31.27;18.40;;;;;;;;;;5026117;28;20662;-78
2022/12/09 02:48:01;;;;;;;33.37;18.77;;;;;;;;;;5038062;28;20567;-78
2022/12/09 02:51:11;;;;;;;31.60;18.53;;;;;;;;;;5038293;28;20637;-78
2022/12/09 02:54:18;;;;;;;32.37;18.67;;;;;;;;;;5027122;28;20551;-79
2022/12/09 02:57:26;;;;;;;29.67;18.20;;;;;;;;;;5026197;28;20607;-78
2022/12/09 03:00:30;;;;;;;33.97;19.53;;;;;;;;;;5025898;28;20602;-78
2022/12/09 03:03:34;;;;;;;30.80;18.80;;;;;;;;;;5015830;28;20550;-78
2022/12/09 03:06:44;;;;;;;29.60;17.17;;;;;;;;;;5038707;28;20540;-78
2022/12/09 03:09:56;;;;;;;31.30;18.20;;;;;;;;;;5038507;28;20547;-77
2022/12/09 03:13:11;;;;;;;29.47;16.97;;;;;;;;;;5026687;28;21132;-78
2022/12/09 03:16:36;;;;;;;31.13;18.13;;;;;;;;;;5037471;28;20590;-78
2022/12/09 03:19:53;;;;;;;28.00;17.13;;;;;;;;;;5026494;28;20551;-79
2022/12/09 03:23:02;;;;;;;24.43;15.70;;;;;;;;;;5037499;28;21105;-77
2022/12/09 03:26:06;;;;;;;27.27;16.90;;;;;;;;;;5014598;28;20603;-78
2022/12/09 03:29:16;;;;;;;40.10;18.80;;;;;;;;;;5037485;28;20547;-78
2022/12/09 03:32:24;;;;;;;34.77;17.97;;;;;;;;;;5037272;28;20642;-78
2022/12/09 03:35:35;;;;;;;32.80;17.87;;;;;;;;;;5027004;28;20563;-78
2022/12/09 03:38:41;;;;;;;29.83;17.17;;;;;;;;;;5041164;28;20543;-78
2022/12/09 03:41:53;;;;;;;32.37;17.80;;;;;;;;;;5040237;28;20645;-78
2022/12/09 03:45:02;;;;;;;26.77;16.37;;;;;;;;;;5036476;28;20638;-78
2022/12/09 03:48:10;;;;;;;26.17;15.07;;;;;;;;;;5049520;28;20550;-77
2022/12/09 03:51:17;;;;;;;26.70;17.57;;;;;;;;;;5060928;28;20629;-78
2022/12/09 03:54:31;;;;;;;31.17;17.00;;;;;;;;;;5049228;28;20546;-79
2022/12/09 03:57:38;;;;;;;27.30;16.00;;;;;;;;;;5060513;28;20542;-78
2022/12/09 04:00:44;;;;;;;22.67;15.30;;;;;;;;;;5048125;28;20597;-77
2022/12/09 04:03:51;;;;;;;26.67;15.83;;;;;;;;;;5059612;28;20550;-77
2022/12/09 04:06:55;;;;;;;23.87;14.93;;;;;;;;;;5059896;28;21092;-77
2022/12/09 04:09:59;;;;;;;26.10;16.30;;;;;;;;;;5060293;28;20546;-77
2022/12/09 04:13:04;;;;;;;27.87;17.27;;;;;;;;;;5048749;28;20562;-78
2022/12/09 04:16:08;;;;;;;27.20;16.17;;;;;;;;;;5060702;28;20550;-78
2022/12/09 04:19:12;;;;;;;24.77;15.83;;;;;;;;;;5037507;28;20556;-78
2022/12/09 04:22:17;;;;;;;25.57;15.63;;;;;;;;;;5048881;28;20647;-77
2022/12/09 04:25:20;;;;;;;23.70;15.03;;;;;;;;;;5060696;28;20649;-78
2022/12/09 04:28:26;;;;;;;24.17;15.07;;;;;;;;;;5059218;28;20962;-78
2022/12/09 04:31:31;;;;;;;22.97;15.47;;;;;;;;;;5047306;28;20625;-77
2022/12/09 04:34:36;;;;;;;27.00;15.83;;;;;;;;;;5058777;28;20546;-78
2022/12/09 04:37:40;;;;;;;22.03;14.83;;;;;;;;;;5060330;28;20542;-78
2022/12/09 04:40:44;;;;;;;24.77;15.63;;;;;;;;;;5048696;28;20543;-77
2022/12/09 04:43:51;;;;;;;29.40;16.57;;;;;;;;;;5063208;28;20879;-79
2022/12/09 04:46:58;;;;;;;28.37;17.00;;;;;;;;;;5051431;28;20646;-78
2022/12/09 04:50:04;;;;;;;25.93;15.50;;;;;;;;;;5052673;28;20539;-78
2022/12/09 04:53:08;;;;;;;28.93;16.00;;;;;;;;;;5041245;28;20547;-78
2022/12/09 04:56:19;;;;;;;28.93;16.77;;;;;;;;;;5063149;28;20538;-78
2022/12/09 04:59:23;;;;;;;25.13;15.90;;;;;;;;;;5026870;28;20616;-78
2022/12/09 05:02:28;;;;;;;30.53;17.93;;;;;;;;;;5023157;28;21003;-78
2022/12/09 05:05:32;;;;;;;28.67;17.27;;;;;;;;;;5033973;28;20600;-78
2022/12/09 05:08:37;;;;;;;29.27;17.17;;;;;;;;;;5010998;28;20973;-78
2022/12/09 05:11:42;;;;;;;31.07;18.43;;;;;;;;;;5021450;28;20639;-78
2022/12/09 05:14:46;;;;;;;31.97;18.80;;;;;;;;;;5021362;28;20631;-78
2022/12/09 05:17:50;;;;;;;32.20;19.40;;;;;;;;;;5032373;28;20549;-78
2022/12/09 05:20:54;;;;;;;31.77;17.67;;;;;;;;;;5009646;28;20616;-78
2022/12/09 05:24:01;;;;;;;36.20;19.77;;;;;;;;;;5022011;28;21158;-78
2022/12/09 05:27:05;;;;;;;33.00;19.53;;;;;;;;;;5008430;28;20612;-78
2022/12/09 05:30:10;;;;;;;32.33;19.53;;;;;;;;;;5020745;28;20604;-78
2022/12/09 05:33:14;;;;;;;34.20;19.90;;;;;;;;;;5020322;28;20541;-78
2022/12/09 05:36:22;;;;;;;32.40;19.50;;;;;;;;;;5020919;28;20549;-78
2022/12/09 05:39:27;;;;;;;31.63;19.73;;;;;;;;;;5019907;28;20604;-78
2022/12/09 05:42:31;;;;;;;32.87;19.90;;;;;;;;;;5008969;28;20625;-77
2022/12/09 05:45:35;;;;;;;36.63;20.50;;;;;;;;;;5012923;28;20654;-78
2022/12/09 05:48:40;;;;;;;34.50;19.50;;;;;;;;;;5027734;28;20543;-78
2022/12/09 05:51:44;;;;;;;38.07;22.70;;;;;;;;;;5039220;28;20631;-78
2022/12/09 05:54:48;;;;;;;34.03;20.27;;;;;;;;;;5019977;28;20601;-78
2022/12/09 05:57:53;;;;;;;33.77;19.77;;;;;;;;;;5000409;28;20604;-78
2022/12/09 06:01:05;;;;;;;35.57;20.77;;;;;;;;;;5038831;28;20627;-79
2022/12/09 06:04:09;;;;;;;33.70;19.97;;;;;;;;;;5031742;28;20952;-79
2022/12/09 06:07:13;;;;;;;33.50;19.03;;;;;;;;;;5011918;28;20636;-78
2022/12/09 06:10:17;;;;;;;32.80;19.70;;;;;;;;;;5007177;28;20541;-78
2022/12/09 06:13:21;;;;;;;32.13;20.80;;;;;;;;;;4994335;28;20552;-76
2022/12/09 06:16:26;;;;;;;37.80;19.70;;;;;;;;;;5005538;28;20541;-78
2022/12/09 06:19:30;;;;;;;34.83;20.70;;;;;;;;;;5005826;28;20712;-78
2022/12/09 06:22:34;;;;;;;33.07;20.13;;;;;;;;;;4994162;28;20624;-77
2022/12/09 06:25:43;;;;;;;35.40;20.43;;;;;;;;;;5028075;28;20954;-77
2022/12/09 06:28:48;;;;;;;34.27;20.77;;;;;;;;;;5016527;28;20557;-77
2022/12/09 06:31:52;;;;;;;31.93;20.07;;;;;;;;;;5016358;28;20998;-77
2022/12/09 06:34:56;;;;;;;40.30;23.13;;;;;;;;;;5006008;28;20544;-78
2022/12/09 06:38:00;;;;;;;37.80;21.73;;;;;;;;;;5007624;28;20553;-78
2022/12/09 06:41:09;;;;;;;39.70;23.10;;;;;;;;;;4996810;28;20623;-78
2022/12/09 06:44:14;;;;;;;41.50;23.60;;;;;;;;;;5019465;28;20562;-77
2022/12/09 06:47:18;;;;;;;38.50;22.77;;;;;;;;;;5007008;28;20592;-77
2022/12/09 06:50:22;;;;;;;41.17;22.77;;;;;;;;;;5006791;28;20873;-78
2022/12/09 06:53:26;;;;;;;39.03;22.53;;;;;;;;;;5005988;28;21173;-77
2022/12/09 06:56:31;;;;;;;38.50;22.77;;;;;;;;;;4994726;28;21177;-78
2022/12/09 06:59:35;;;;;;;39.10;22.27;;;;;;;;;;4995812;28;20560;-78
2022/12/09 07:02:39;;;;;;;37.47;23.17;;;;;;;;;;4994534;28;20624;-78
2022/12/09 07:05:43;;;;;;;38.33;22.57;;;;;;;;;;5017751;28;20588;-77
2022/12/09 07:08:47;;;;;;;39.73;21.40;;;;;;;;;;5006924;28;20893;-78
2022/12/09 07:11:52;;;;;;;37.63;22.17;;;;;;;;;;5023807;28;20623;-77
2022/12/09 07:14:57;;;;;;;39.37;23.47;;;;;;;;;;5025897;28;20615;-78
2022/12/09 07:18:10;;;;;;;51.77;23.00;;;;;;;;;;5013095;28;20537;-77
2022/12/09 07:21:17;;;;;;;38.13;23.07;;;;;;;;;;5013199;28;20627;-77
2022/12/09 07:24:21;;;;;;;40.73;23.93;;;;;;;;;;5028564;28;20647;-77
2022/12/09 07:27:26;;;;;;;40.63;23.77;;;;;;;;;;5019641;28;20636;-77
2022/12/09 07:30:30;;;;;;;42.97;23.80;;;;;;;;;;5013186;28;20537;-77
2022/12/09 07:33:34;;;;;;;37.17;22.47;;;;;;;;;;5020056;28;20540;-77
2022/12/09 07:36:39;;;;;;;38.17;23.10;;;;;;;;;;5041061;28;20544;-78
2022/12/09 07:39:43;;;;;;;40.47;23.63;;;;;;;;;;5024655;28;20601;-77
2022/12/09 07:42:47;;;;;;;36.37;22.27;;;;;;;;;;5024043;28;20627;-77
2022/12/09 07:45:57;;;;;;;34.17;21.33;;;;;;;;;;5032194;28;20649;-77
2022/12/09 07:49:03;;;;;;;36.57;22.07;;;;;;;;;;5040562;28;20567;-77
2022/12/09 07:52:07;;;;;;;38.07;23.10;;;;;;;;;;5015826;28;20627;-77
2022/12/09 07:55:11;;;;;;;34.87;21.87;;;;;;;;;;5026134;28;20549;-78
2022/12/09 07:58:15;;;;;;;39.70;22.23;;;;;;;;;;5023280;28;20587;-77
2022/12/09 08:01:25;;;;;;;38.47;22.80;;;;;;;;;;5021475;28;20630;-78
2022/12/09 08:04:30;;;;;;;40.93;23.90;;;;;;;;;;5022213;28;20595;-78
2022/12/09 08:07:34;;;;;;;42.60;23.93;;;;;;;;;;5033050;28;20610;-77
2022/12/09 08:10:39;;;;;;;40.77;23.70;;;;;;;;;;5045076;28;20543;-77
2022/12/09 08:13:43;;;;;;;40.43;23.20;;;;;;;;;;5022358;28;20607;-78
2022/12/09 08:16:47;;;;;;;40.03;23.67;;;;;;;;;;5011758;28;20552;-78
2022/12/09 08:19:52;;;;;;;40.07;23.03;;;;;;;;;;5025539;28;20552;-77
2022/12/09 08:22:56;;;;;;;37.13;21.70;;;;;;;;;;5006347;28;20545;-77
2022/12/09 08:26:01;;;;;;;38.97;21.97;;;;;;;;;;5028901;28;20577;-77
2022/12/09 08:29:10;;;;;;;33.97;21.03;;;;;;;;;;5010822;28;20553;-78
2022/12/09 08:32:16;;;;;;;36.53;21.43;;;;;;;;;;5016565;28;21001;-77
2022/12/09 08:35:20;;;;;;;37.60;22.10;;;;;;;;;;5017367;28;20600;-78
2022/12/09 08:38:24;;;;;;;34.37;21.10;;;;;;;;;;5016896;28;20537;-78
2022/12/09 08:41:34;;;;;;;35.00;21.33;;;;;;;;;;5016161;28;20667;-78
2022/12/09 08:44:39;;;;;;;36.73;20.53;;;;;;;;;;4994655;28;20557;-78
2022/12/09 08:47:43;;;;;;;38.43;22.37;;;;;;;;;;5022004;28;20664;-78
2022/12/09 08:50:47;;;;;;;37.07;21.83;;;;;;;;;;5013478;28;20624;-78
2022/12/09 08:53:51;;;;;;;34.70;21.30;;;;;;;;;;5026041;28;20615;-78
2022/12/09 08:56:55;;;;;;;35.53;21.47;;;;;;;;;;5022245;28;20608;-78
2022/12/09 08:59:59;;;;;;;36.67;20.63;;;;;;;;;;5017186;28;20608;-78
2022/12/09 09:03:03;;;;;;;34.50;20.90;;;;;;;;;;4995036;28;20600;-78
2022/12/09 09:06:07;;;;;;;35.70;21.93;;;;;;;;;;4995615;28;20599;-78
2022/12/09 09:09:13;;;;;;;39.47;21.07;;;;;;;;;;4998368;28;20592;-78
2022/12/09 09:12:17;;;;;;;33.80;20.30;;;;;;;;;;5007408;28;20619;-78
2022/12/09 09:15:21;;;;;;;36.47;20.23;;;;;;;;;;5018208;28;20604;-78
2022/12/09 09:18:26;;;;;;;36.90;20.97;;;;;;;;;;5008961;28;20604;-78
2022/12/09 09:21:31;;;;;;;30.93;20.20;;;;;;;;;;5008590;28;20631;-77
2022/12/09 09:24:35;;;;;;;32.50;19.00;;;;;;;;;;5009033;28;20545;-78
2022/12/09 09:27:40;;;;;;;31.60;20.30;;;;;;;;;;5018931;28;20960;-77
2022/12/09 09:30:45;;;;;;;36.07;21.03;;;;;;;;;;5019706;28;20877;-78
2022/12/09 09:33:50;;;;;;;37.60;20.73;;;;;;;;;;5007330;28;20541;-77
2022/12/09 09:36:55;;;;;;;32.07;19.07;;;;;;;;;;5027340;28;21138;-77
2022/12/09 09:39:59;;;;;;;32.00;19.10;;;;;;;;;;5012874;28;20537;-79
2022/12/09 09:43:03;;;;;;;33.40;19.73;;;;;;;;;;5034121;28;20917;-79
2022/12/09 09:46:15;;;;;;;33.00;18.40;;;;;;;;;;5019637;28;20591;-78
2022/12/09 09:49:41;;;;;;;34.10;19.13;;;;;;;;;;5010852;28;20604;-78
2022/12/09 09:52:46;;;;;;;33.10;19.50;;;;;;;;;;4995919;28;20608;-78
2022/12/09 09:56:18;;;;;;;33.10;19.37;;;;;;;;;;5018734;28;20921;-77
2022/12/09 09:59:50;;;;;;;31.27;18.97;;;;;;;;;;5018512;28;20557;-79
2022/12/09 10:03:12;;;;;;;30.27;18.33;;;;;;;;;;4995018;28;20625;-78
2022/12/09 10:06:44;;;;;;;32.07;19.73;;;;;;;;;;4996620;28;20556;-78
2022/12/09 10:09:59;;;;;;;33.60;18.43;;;;;;;;;;5018746;28;20545;-77
2022/12/09 10:13:33;;;;;;;44.67;20.33;;;;;;;;;;5007186;28;20568;-78
2022/12/09 10:16:51;;;;;;;31.87;18.60;;;;;;;;;;5018827;28;20620;-77
2022/12/09 10:20:19;;;;;;;31.37;18.43;;;;;;;;;;5019899;28;20541;-79
2022/12/09 10:23:28;;;;;;;34.17;19.03;;;;;;;;;;5009065;28;20545;-77
2022/12/09 10:26:33;;;;;;;32.13;18.80;;;;;;;;;;5000492;28;20537;-77
2022/12/09 10:29:47;;;;;;;35.13;18.87;;;;;;;;;;5000097;28;20549;-78
2022/12/09 10:32:52;;;;;;;33.57;18.47;;;;;;;;;;5008229;28;20608;-78
2022/12/09 10:35:57;;;;;;;36.37;19.57;;;;;;;;;;5020505;28;21117;-78
2022/12/09 10:39:01;;;;;;;38.67;18.80;;;;;;;;;;5028181;28;20595;-78
2022/12/09 10:45:31;;;;;;;29.33;17.70;;;;;;;;;;5016800;28;20589;-78
2022/12/09 10:48:41;;;;;;;31.13;18.03;;;;;;;;;;5020163;28;20600;-77
2022/12/09 10:51:48;;;;;;;33.67;18.30;;;;;;;;;;5021149;28;20624;-77
2022/12/09 10:54:52;;;;;;;28.47;17.07;;;;;;;;;;5007929;28;20545;-77
2022/12/09 10:58:30;;;;;;;31.23;17.63;;;;;;;;;;5013520;28;20599;-77
2022/12/09 11:01:48;;;;;;;28.07;15.70;;;;;;;;;;5026827;28;20650;-77
2022/12/09 11:04:53;;;;;;;29.60;17.17;;;;;;;;;;5024017;28;20552;-77
2022/12/09 11:07:57;;;;;;;31.70;16.73;;;;;;;;;;5024998;28;20607;-78
2022/12/09 11:11:01;;;;;;;32.27;17.00;;;;;;;;;;5037908;28;20630;-77
2022/12/09 11:14:24;;;;;;;31.77;17.97;;;;;;;;;;5035116;28;20603;-77
2022/12/09 11:17:34;;;;;;;36.43;19.67;;;;;;;;;;5023913;28;20544;-77
2022/12/09 11:20:38;;;;;;;32.07;17.33;;;;;;;;;;5024463;28;20540;-77
2022/12/09 11:23:51;;;;;;;35.40;18.67;;;;;;;;;;5034701;28;20947;-77
2022/12/09 11:26:55;;;;;;;33.10;16.80;;;;;;;;;;5024081;28;20953;-77
2022/12/09 11:30:17;;;;;;;30.27;17.03;;;;;;;;;;5035792;28;20552;-77
2022/12/09 11:33:31;;;;;;;33.67;16.50;;;;;;;;;;5035624;28;20536;-77
2022/12/09 11:36:40;;;;;;;34.23;17.20;;;;;;;;;;5033074;28;21086;-77
2022/12/09 11:39:49;;;;;;;34.70;16.80;;;;;;;;;;5033421;28;20553;-77
2022/12/09 11:42:55;;;;;;;33.60;17.40;;;;;;;;;;5033441;28;20614;-77
2022/12/09 11:46:05;;;;;;;35.43;17.80;;;;;;;;;;5023770;28;20543;-77
2022/12/09 11:49:18;;;;;;;31.17;17.23;;;;;;;;;;5035408;28;20664;-77
2022/12/09 11:52:29;;;;;;;36.00;18.27;;;;;;;;;;5035860;28;20627;-77
2022/12/09 11:55:36;;;;;;;33.90;17.37;;;;;;;;;;5021587;28;21086;-77
2022/12/09 11:58:53;;;;;;;35.97;18.07;;;;;;;;;;5025365;28;20892;-77
2022/12/09 12:02:24;;;;;;;43.27;21.93;;;;;;;;;;5037001;28;20746;-77
2022/12/09 12:05:35;;;;;;;35.50;18.00;;;;;;;;;;5027471;28;20552;-77
2022/12/09 12:08:51;;;;;;;35.47;18.60;;;;;;;;;;5018000;28;20610;-77
2022/12/09 12:12:08;;;;;;;34.73;18.70;;;;;;;;;;5039793;28;20634;-77
2022/12/09 12:15:21;;;;;;;36.27;18.67;;;;;;;;;;5039345;28;20943;-77
2022/12/09 12:18:29;;;;;;;38.50;19.00;;;;;;;;;;5016709;28;20548;-77
2022/12/09 12:21:36;;;;;;;43.10;19.63;;;;;;;;;;5027151;28;20619;-77
2022/12/09 12:24:53;;;;;;;41.73;18.90;;;;;;;;;;5038140;28;20540;-77
2022/12/09 12:28:06;;;;;;;41.77;19.70;;;;;;;;;;5039400;28;20596;-77
2022/12/09 12:31:24;;;;;;;40.90;21.07;;;;;;;;;;5028596;28;20619;-77
2022/12/09 12:34:35;;;;;;;41.83;20.70;;;;;;;;;;5038227;28;20544;-77
2022/12/09 12:37:39;;;;;;;33.33;18.70;;;;;;;;;;5036052;28;20595;-78
2022/12/09 12:41:09;;;;;;;38.30;19.63;;;;;;;;;;5036074;28;20541;-78
2022/12/09 12:47:47;;;;;;;38.10;19.20;;;;;;;;;;5034658;28;20639;-77
2022/12/09 12:51:04;;;;;;;30.83;17.53;;;;;;;;;;5032745;28;20631;-77
2022/12/09 12:54:47;;;;;;;33.13;18.43;;;;;;;;;;5040493;28;21160;-77
2022/12/09 12:58:05;;;;;;;31.77;17.40;;;;;;;;;;5042289;28;20556;-77
2022/12/09 13:01:14;;;;;;;36.40;18.40;;;;;;;;;;5041488;28;20615;-77
2022/12/09 13:04:42;;;;;;;37.27;19.30;;;;;;;;;;5011112;28;20608;-77
2022/12/09 13:07:49;;;;;;;36.00;18.50;;;;;;;;;;5009251;28;21190;-77
2022/12/09 13:10:57;;;;;;;32.73;17.67;;;;;;;;;;5019429;28;20631;-77
2022/12/09 13:14:10;;;;;;;35.53;18.27;;;;;;;;;;5018412;28;20553;-77
2022/12/09 13:17:14;;;;;;;33.40;17.87;;;;;;;;;;5018577;28;21080;-77
2022/12/09 13:20:28;;;;;;;35.10;17.63;;;;;;;;;;5030551;28;20592;-77
2022/12/09 13:23:55;;;;;;;30.07;18.03;;;;;;;;;;5038063;28;21118;-77
2022/12/09 13:27:21;;;;;;;34.67;18.33;;;;;;;;;;5027241;28;20552;-78
2022/12/09 13:30:32;;;;;;;35.17;18.00;;;;;;;;;;5039111;28;20544;-77
2022/12/09 13:34:21;;;;;;;31.93;18.40;;;;;;;;;;5039159;28;20876;-77
2022/12/09 13:37:29;;;;;;;29.60;17.50;;;;;;;;;;5037512;28;20556;-77
2022/12/09 13:40:35;;;;;;;30.80;18.70;;;;;;;;;;5038380;28;20927;-77
2022/12/09 13:43:40;;;;;;;35.13;19.33;;;;;;;;;;5038192;28;20560;-77
2022/12/09 13:46:44;;;;;;;29.37;16.60;;;;;;;;;;5038224;28;20544;-78
2022/12/09 13:49:56;;;;;;;36.37;20.17;;;;;;;;;;5037219;28;20541;-77
2022/12/09 13:53:23;;;;;;;36.77;19.40;;;;;;;;;;5037253;28;20599;-77
2022/12/09 13:56:35;;;;;;;36.30;18.87;;;;;;;;;;5010944;28;20896;-77
2022/12/09 13:59:43;;;;;;;33.30;19.07;;;;;;;;;;5005330;28;20876;-77
2022/12/09 14:02:56;;;;;;;32.40;19.20;;;;;;;;;;5016497;28;20612;-77
2022/12/09 14:06:04;;;;;;;37.30;19.47;;;;;;;;;;5016278;28;20604;-77
2022/12/09 14:09:28;;;;;;;35.70;18.97;;;;;;;;;;5017121;28;20605;-77
2022/12/09 14:12:32;;;;;;;33.23;18.60;;;;;;;;;;5016455;28;20616;-77
2022/12/09 14:15:37;;;;;;;39.83;22.27;;;;;;;;;;5006051;28;20608;-77
2022/12/09 14:18:42;;;;;;;31.53;19.37;;;;;;;;;;5017433;28;20533;-78
2022/12/09 14:22:18;;;;;;;35.83;19.47;;;;;;;;;;5017502;28;20616;-77
2022/12/09 14:25:27;;;;;;;44.90;23.53;;;;;;;;;;5004953;28;20537;-77
2022/12/09 14:28:39;;;;;;;35.70;20.17;;;;;;;;;;5005056;28;20614;-77
2022/12/09 14:32:00;;;;;;;32.80;18.93;;;;;;;;;;5004760;28;21218;-77
2022/12/09 14:35:10;;;;;;;33.30;19.13;;;;;;;;;;5015845;28;20549;-77
2022/12/09 14:38:43;;;;;;;37.37;19.37;;;;;;;;;;5015828;28;20538;-77
2022/12/09 14:41:57;;;;;;;32.03;18.67;;;;;;;;;;5015859;28;20217;-77
2022/12/09 14:45:20;;;;;;;33.37;19.87;;;;;;;;;;5016115;28;20553;-77
2022/12/09 14:48:38;;;;;;;30.17;17.97;;;;;;;;;;5016035;28;20214;-77
2022/12/09 14:51:48;;;;;;;29.47;17.97;;;;;;;;;;5015047;28;20225;-77
2022/12/09 14:54:54;;;;;;;33.80;19.30;;;;;;;;;;5016695;28;20632;-77
2022/12/09 14:58:00;;;;;;;29.07;18.23;;;;;;;;;;5029156;28;20192;-77
2022/12/09 15:01:05;;;;;;;32.07;19.00;;;;;;;;;;5030988;28;20229;-77
2022/12/09 15:04:23;;;;;;;33.27;18.67;;;;;;;;;;5017563;28;20189;-77
2022/12/09 15:07:30;;;;;;;33.90;18.67;;;;;;;;;;5025938;28;20208;-77
2022/12/09 15:10:37;;;;;;;30.50;18.03;;;;;;;;;;5035173;28;20208;-78
2022/12/09 15:13:46;;;;;;;34.33;19.57;;;;;;;;;;5033158;28;20181;-77
2022/12/09 15:16:51;;;;;;;32.83;19.23;;;;;;;;;;5037129;28;20192;-77
2022/12/09 15:19:55;;;;;;;32.80;18.97;;;;;;;;;;5021208;28;20611;-77
2022/12/09 15:23:03;;;;;;;31.60;18.07;;;;;;;;;;5022315;28;20575;-77
2022/12/09 15:26:18;;;;;;;32.93;19.13;;;;;;;;;;5036943;28;21043;-77
2022/12/09 15:29:29;;;;;;;32.87;18.23;;;;;;;;;;5036423;28;20616;-78
2022/12/09 15:32:37;;;;;;;30.33;17.97;;;;;;;;;;5038587;28;21021;-77
2022/12/09 15:35:49;;;;;;;33.70;19.13;;;;;;;;;;5041290;28;20540;-77
2022/12/09 15:38:56;;;;;;;31.50;18.90;;;;;;;;;;5041725;28;20540;-77
2022/12/09 15:42:08;;;;;;;30.90;18.13;;;;;;;;;;5040052;28;20631;-77
2022/12/09 15:45:17;;;;;;;26.03;16.17;;;;;;;;;;5029357;28;20536;-77
2022/12/09 15:48:26;;;;;;;26.47;15.20;;;;;;;;;;5043100;28;20651;-77
2022/12/09 15:51:33;;;;;;;25.27;15.40;;;;;;;;;;5031177;28;20631;-77
2022/12/09 15:54:40;;;;;;;26.97;15.73;;;;;;;;;;5045275;28;20547;-78
2022/12/09 15:57:48;;;;;;;26.43;15.67;;;;;;;;;;5036158;28;20536;-78
2022/12/09 16:00:53;;;;;;;27.20;15.20;;;;;;;;;;5036047;28;20611;-78
2022/12/09 16:03:59;;;;;;;29.97;16.50;;;;;;;;;;5041488;28;20536;-77
2022/12/09 16:07:08;;;;;;;26.57;16.53;;;;;;;;;;5019284;28;20541;-76
2022/12/09 16:10:16;;;;;;;27.53;15.77;;;;;;;;;;5017781;28;20949;-76
2022/12/09 16:13:20;;;;;;;44.97;23.37;;;;;;;;;;5021055;28;20584;-78
2022/12/09 16:16:32;;;;;;;56.90;30.73;;;;;;;;;;5018962;28;20548;-76
2022/12/09 16:19:37;;;;;;;33.37;21.20;;;;;;;;;;5009443;28;21136;-76
2022/12/09 16:22:41;;;;;;;28.17;17.03;;;;;;;;;;5025325;28;20941;-76
2022/12/09 16:25:48;;;;;;;27.17;17.30;;;;;;;;;;5037139;28;21164;-76
2022/12/09 16:28:54;;;;;;;31.30;17.93;;;;;;;;;;5037163;28;20602;-75
2022/12/09 16:32:20;;;;;;;28.73;15.33;;;;;;;;;;5036849;28;20619;-76
2022/12/09 16:35:38;;;;;;;24.80;15.17;;;;;;;;;;5036946;28;20528;-76
2022/12/09 16:39:11;;;;;;;21.37;14.83;;;;;;;;;;5032705;28;20619;-77
2022/12/09 16:42:35;;;;;;;24.93;14.20;;;;;;;;;;5016133;28;20699;-77
2022/12/09 16:45:44;;;;;;;24.83;15.13;;;;;;;;;;5017334;28;20908;-77
2022/12/09 16:48:49;;;;;;;21.27;13.03;;;;;;;;;;5022751;28;20635;-77
2022/12/09 16:51:53;;;;;;;24.23;15.13;;;;;;;;;;5005204;28;20628;-77
2022/12/09 16:54:57;;;;;;;24.97;15.13;;;;;;;;;;5032092;28;20630;-77
2022/12/09 16:58:01;;;;;;;32.80;17.87;;;;;;;;;;5016156;28;20202;-77
2022/12/09 17:01:12;;;;;;;25.47;15.27;;;;;;;;;;5024527;28;20647;-76
2022/12/09 17:04:23;;;;;;;23.20;14.77;;;;;;;;;;5032599;28;20586;-76
2022/12/09 17:07:27;;;;;;;20.67;13.87;;;;;;;;;;5031269;28;20571;-77
2022/12/09 17:10:31;;;;;;;21.83;14.10;;;;;;;;;;5015597;28;20936;-77
2022/12/09 17:13:36;;;;;;;23.20;14.77;;;;;;;;;;5015023;28;20631;-76
2022/12/09 17:16:41;;;;;;;23.47;14.17;;;;;;;;;;5031310;28;21184;-77
2022/12/09 17:19:45;;;;;;;23.73;15.00;;;;;;;;;;5022046;28;20564;-77
2022/12/09 17:22:49;;;;;;;22.53;14.53;;;;;;;;;;5028967;28;20635;-77
2022/12/09 17:26:01;;;;;;;23.10;14.97;;;;;;;;;;5041657;28;21075;-78
2022/12/09 17:29:06;;;;;;;23.13;14.30;;;;;;;;;;5026879;28;20644;-78
2022/12/09 17:32:10;;;;;;;24.33;15.33;;;;;;;;;;5012638;28;20660;-78
2022/12/09 17:35:14;;;;;;;23.77;14.93;;;;;;;;;;5022973;28;21415;-77
2022/12/09 17:38:19;;;;;;;22.53;14.20;;;;;;;;;;5020095;28;20557;-78
2022/12/09 17:41:23;;;;;;;24.30;14.87;;;;;;;;;;5026801;28;20639;-78
2022/12/09 17:44:28;;;;;;;25.27;14.87;;;;;;;;;;5014592;28;20556;-77
2022/12/09 17:47:33;;;;;;;21.43;13.93;;;;;;;;;;5029918;28;20964;-78
2022/12/09 17:50:38;;;;;;;27.07;15.20;;;;;;;;;;5006697;28;20665;-77
2022/12/09 17:53:46;;;;;;;21.63;13.40;;;;;;;;;;5019354;28;20631;-77
2022/12/09 17:56:50;;;;;;;25.60;14.23;;;;;;;;;;5034289;28;20604;-77
2022/12/09 17:59:55;;;;;;;21.67;14.53;;;;;;;;;;5004720;28;20545;-78
2022/12/09 18:02:59;;;;;;;23.20;14.90;;;;;;;;;;5014274;28;20607;-78
2022/12/09 18:06:04;;;;;;;24.73;15.03;;;;;;;;;;5027680;28;20603;-79
2022/12/09 18:09:11;;;;;;;22.73;14.47;;;;;;;;;;5026860;28;20616;-79
2022/12/09 18:12:15;;;;;;;20.47;13.13;;;;;;;;;;5014581;28;20643;-78
2022/12/09 18:15:19;;;;;;;21.03;13.33;;;;;;;;;;5017494;28;20648;-79
2022/12/09 18:18:24;;;;;;;22.07;13.43;;;;;;;;;;5038226;28;20539;-78
2022/12/09 18:21:28;;;;;;;19.77;12.37;;;;;;;;;;5036717;28;20990;-78
2022/12/09 18:24:32;;;;;;;21.33;13.03;;;;;;;;;;5037322;28;20536;-79